Time;durP1;ratioP1;P1;durP2;ratioP2;P2;SDS_P1;SDS_P2;PMS_P1;PMS_P2;Temp;Humidity;BMP_temperature;BMP_pressure;BME280_temperature;BME280_humidity;BME280_pressure;Samples;Min_cycle;Max_cycle;Signal;HPM_P1;HPM_P2
2021/03/30 00:00:16;;;;;;;15.00;6.05;;;;;;;6.67;54.45;101856.44;4993720;28;20095;-93
2021/03/30 00:02:41;;;;;;;9.70;4.55;;;;;;;6.54;54.71;101858.09;4987391;28;20034;-88
2021/03/30 00:05:07;;;;;;;6.18;4.13;;;;;;;6.11;55.26;101831.75;4990782;28;20046;-89
2021/03/30 00:07:33;;;;;;;6.93;4.03;;;;;;;5.55;57.62;101858.13;5009511;28;20144;-84
2021/03/30 00:09:58;;;;;;;6.37;3.83;;;;;;;5.19;58.48;101826.25;4995929;28;20042;-90
2021/03/30 00:12:24;;;;;;;7.10;3.92;;;;;;;5.74;57.50;101852.78;4992098;28;20448;-88
2021/03/30 00:14:49;;;;;;;6.13;3.87;;;;;;;5.91;56.35;101864.38;4991422;28;20503;-91
2021/03/30 00:17:15;;;;;;;7.15;4.97;;;;;;;6.02;57.00;101859.22;4990750;28;20056;-88
2021/03/30 00:19:40;;;;;;;8.02;4.43;;;;;;;5.76;57.71;101856.38;4991811;28;20066;-77
2021/03/30 00:22:06;;;;;;;6.82;4.35;;;;;;;5.85;57.79;101856.22;4991102;28;20037;-90
2021/03/30 00:24:31;;;;;;;8.10;4.95;;;;;;;5.66;56.83;101821.44;4989707;28;20093;-79
2021/03/30 00:26:57;;;;;;;9.10;4.40;;;;;;;5.59;58.14;101870.41;4990489;28;20081;-90
2021/03/30 00:29:22;;;;;;;7.37;4.20;;;;;;;5.49;59.16;101866.22;4990084;28;20065;-88
2021/03/30 00:31:48;;;;;;;7.77;4.07;;;;;;;5.69;58.47;101855.78;4989915;28;20125;-85
2021/03/30 00:34:13;;;;;;;25.73;10.43;;;;;;;5.96;58.02;101867.31;4989624;28;20030;-90
2021/03/30 00:36:39;;;;;;;81.37;31.07;;;;;;;5.39;59.17;101832.97;4990428;28;20030;-84
2021/03/30 00:39:05;;;;;;;17.00;8.03;;;;;;;5.54;59.36;101869.16;4989950;28;20038;-83
2021/03/30 00:41:38;;;;;;;10.80;5.20;;;;;;;5.33;59.78;101848.75;4989686;28;20505;-82
2021/03/30 00:44:12;;;;;;;7.73;4.60;;;;;;;5.26;60.04;101831.09;4990836;28;20033;-79
2021/03/30 00:46:39;;;;;;;8.97;4.43;;;;;;;5.38;60.51;101861.91;4994285;28;20030;-88
2021/03/30 00:49:05;;;;;;;8.70;5.10;;;;;;;5.52;59.34;101845.09;4994780;28;20137;-83
2021/03/30 00:51:30;;;;;;;7.20;4.03;;;;;;;5.62;59.42;101852.72;5011875;28;20563;-87
2021/03/30 00:53:56;;;;;;;12.53;5.40;;;;;;;5.61;59.37;101848.38;4995615;28;20045;-80
2021/03/30 00:56:22;;;;;;;6.77;4.33;;;;;;;5.67;59.28;101855.66;4995341;28;20225;-81
2021/03/30 00:58:48;;;;;;;7.63;4.03;;;;;;;5.66;59.33;101859.88;4992020;28;20038;-77
2021/03/30 01:01:14;;;;;;;7.00;4.17;;;;;;;5.33;60.39;101852.97;4992721;28;20052;-76
2021/03/30 01:03:40;;;;;;;12.57;5.30;;;;;;;5.32;59.94;101852.06;5003121;28;20029;-76
2021/03/30 01:06:05;;;;;;;9.57;5.80;;;;;;;5.49;60.01;101866.22;5011557;28;20072;-75
2021/03/30 01:08:39;;;;;;;10.00;4.90;;;;;;;5.56;59.49;101865.06;5011463;28;20037;-76
2021/03/30 01:11:20;;;;;;;6.40;4.50;;;;;;;5.48;60.54;101835.34;5003855;28;20038;-76
2021/03/30 01:14:11;;;;;;;8.03;4.87;;;;;;;5.61;61.49;101853.50;5006080;28;20030;-77
2021/03/30 01:16:40;;;;;;;11.23;5.07;;;;;;;5.68;61.58;101847.19;4994585;28;20046;-76
2021/03/30 01:19:28;;;;;;;7.88;4.75;;;;;;;5.84;61.19;101854.41;5011149;28;20592;-74
2021/03/30 01:22:21;;;;;;;7.97;4.43;;;;;;;5.58;61.26;101802.03;5006570;28;20023;-74
2021/03/30 01:24:52;;;;;;;8.30;4.20;;;;;;;5.81;61.56;101838.81;4994007;28;20035;-76
2021/03/30 01:27:37;;;;;;;6.50;4.67;;;;;;;5.91;60.65;101841.31;4994202;28;20034;-76
2021/03/30 01:30:04;;;;;;;7.57;4.70;;;;;;;5.88;60.20;101820.56;4993756;28;20029;-80
2021/03/30 01:32:41;;;;;;;15.27;6.63;;;;;;;6.03;60.17;101843.06;4992301;28;20117;-76
2021/03/30 01:35:23;;;;;;;7.18;4.20;;;;;;;6.09;59.83;101835.84;4992897;28;20034;-76
2021/03/30 01:37:49;;;;;;;9.80;4.35;;;;;;;6.14;59.55;101829.41;5005221;28;20037;-76
2021/03/30 01:40:20;;;;;;;7.57;4.28;;;;;;;5.89;59.26;101771.09;4992253;28;20038;-75
2021/03/30 01:42:47;;;;;;;7.07;4.00;;;;;;;5.95;59.19;101812.56;4993471;28;20106;-75
2021/03/30 01:45:15;;;;;;;6.72;4.03;;;;;;;5.89;59.34;101814.66;4993464;28;20022;-74
2021/03/30 01:47:42;;;;;;;22.73;7.95;;;;;;;5.99;59.14;101826.56;5010680;28;20040;-76
2021/03/30 01:50:10;;;;;;;10.03;4.67;;;;;;;6.04;59.18;101811.53;5010592;28;20034;-74
2021/03/30 01:52:37;;;;;;;32.25;11.15;;;;;;;6.15;58.32;101826.94;4994542;28;20030;-76
2021/03/30 01:55:06;;;;;;;26.45;9.68;;;;;;;6.18;58.21;101831.44;5009713;28;20030;-76
2021/03/30 01:57:32;;;;;;;229.85;77.75;;;;;;;6.20;58.56;101829.00;5010695;28;20503;-76
2021/03/30 02:00:00;;;;;;;63.33;25.15;;;;;;;6.26;58.30;101820.09;4994421;28;20119;-77
2021/03/30 02:02:26;;;;;;;23.83;7.47;;;;;;;6.26;58.32;101807.25;5010226;28;20045;-76
2021/03/30 02:04:53;;;;;;;19.73;6.22;;;;;;;6.36;58.00;101806.28;5010632;28;20069;-74
2021/03/30 02:07:20;;;;;;;34.45;5.40;;;;;;;6.40;58.02;101825.38;5010217;28;20528;-76
2021/03/30 02:09:50;;;;;;;23.83;6.03;;;;;;;6.22;58.72;101812.03;5010363;28;20080;-82
2021/03/30 02:12:18;;;;;;;24.08;4.80;;;;;;;6.20;58.86;101822.19;5010185;28;20042;-77
2021/03/30 02:14:45;;;;;;;21.98;5.20;;;;;;;6.18;59.41;101826.31;5010295;28;20037;-76
2021/03/30 02:17:27;;;;;;;14.27;4.00;;;;;;;6.15;60.02;101828.63;5010234;28;20029;-77
2021/03/30 02:20:04;;;;;;;17.77;5.15;;;;;;;5.97;60.93;101823.84;4999173;28;20116;-76
2021/03/30 02:22:36;;;;;;;12.25;6.93;;;;;;;5.75;61.39;101821.28;5010009;28;20034;-74
2021/03/30 02:25:05;;;;;;;13.87;7.13;;;;;;;5.83;61.96;101835.59;5001578;28;20109;-76
2021/03/30 02:27:41;;;;;;;14.77;4.57;;;;;;;5.88;61.73;101830.84;4991546;28;20034;-76
2021/03/30 02:30:09;;;;;;;9.48;4.18;;;;;;;6.03;60.89;101830.25;4992786;28;20340;-76
2021/03/30 02:32:34;;;;;;;12.57;4.00;;;;;;;5.94;61.35;101810.81;4992274;28;20045;-75
2021/03/30 02:35:04;;;;;;;8.20;3.88;;;;;;;6.11;62.02;101824.06;4992867;28;20038;-76
2021/03/30 02:37:30;;;;;;;10.88;4.32;;;;;;;5.91;62.50;101841.31;4991819;28;20436;-76
2021/03/30 02:39:56;;;;;;;8.23;4.27;;;;;;;5.81;62.82;101820.88;4992534;28;20121;-75
2021/03/30 02:42:22;;;;;;;8.95;4.10;;;;;;;5.86;62.84;101829.81;4993108;28;20455;-76
2021/03/30 02:44:50;;;;;;;8.63;3.77;;;;;;;5.79;62.56;101827.53;4991559;28;20120;-81
2021/03/30 02:47:18;;;;;;;10.20;4.15;;;;;;;5.60;62.57;101836.34;4992283;28;20050;-76
2021/03/30 02:49:45;;;;;;;92.47;36.37;;;;;;;5.16;64.09;101823.47;4992960;28;20022;-76
2021/03/30 02:52:12;;;;;;;181.53;66.93;;;;;;;4.93;64.50;101819.91;4991314;28;20034;-78
2021/03/30 02:54:39;;;;;;;28.43;8.50;;;;;;;5.01;64.28;101810.31;4992505;28;20076;-76
2021/03/30 02:57:06;;;;;;;37.07;13.47;;;;;;;5.22;63.62;101834.19;4992649;28;20019;-76
2021/03/30 02:59:33;;;;;;;19.03;7.90;;;;;;;4.64;61.66;101825.22;4991197;28;20496;-75
2021/03/30 03:01:59;;;;;;;10.57;6.60;;;;;;;4.36;62.44;101840.78;4991384;28;20031;-76
2021/03/30 03:04:26;;;;;;;10.97;6.90;;;;;;;4.28;62.25;101834.16;4992312;28;20029;-78
2021/03/30 03:06:52;;;;;;;13.77;6.77;;;;;;;4.24;62.16;101826.97;4990689;28;20136;-77
2021/03/30 03:09:19;;;;;;;10.83;6.57;;;;;;;4.47;61.65;101854.47;4991064;28;20081;-77
2021/03/30 03:11:47;;;;;;;9.53;6.27;;;;;;;4.40;61.87;101855.63;4991729;28;20027;-77
2021/03/30 03:14:15;;;;;;;16.13;9.97;;;;;;;4.28;62.20;101847.81;4990844;28;20034;-76
2021/03/30 03:16:41;;;;;;;19.77;13.33;;;;;;;4.24;62.05;101840.66;4969935;28;20083;-76
2021/03/30 03:19:08;;;;;;;28.53;16.57;;;;;;;4.04;61.77;101791.31;4953898;28;20070;-76
2021/03/30 03:21:35;;;;;;;21.50;12.73;;;;;;;4.21;62.27;101850.63;4970212;28;20047;-76
2021/03/30 03:24:03;;;;;;;16.17;11.97;;;;;;;4.22;61.80;101831.97;4954064;28;20035;-77
2021/03/30 03:26:30;;;;;;;24.40;11.70;;;;;;;4.32;61.54;101838.75;4970330;28;20054;-78
2021/03/30 03:28:55;;;;;;;18.63;10.03;;;;;;;4.41;61.56;101851.41;4963308;28;20170;-76
2021/03/30 03:31:29;;;;;;;21.83;10.60;;;;;;;4.20;61.35;101805.41;4969229;28;20118;-76
2021/03/30 03:34:01;;;;;;;19.77;8.77;;;;;;;3.70;62.20;101782.41;4953886;28;20460;-76
2021/03/30 03:36:34;;;;;;;14.50;8.47;;;;;;;4.01;62.61;101837.06;4952513;28;20042;-78
2021/03/30 03:39:00;;;;;;;17.67;8.37;;;;;;;4.18;61.77;101825.69;4969806;28;20043;-77
2021/03/30 03:41:25;;;;;;;12.70;7.90;;;;;;;4.13;62.25;101847.41;4953434;28;20137;-76
2021/03/30 03:43:51;;;;;;;15.53;8.37;;;;;;;4.09;62.77;101847.94;4953763;28;20039;-82
2021/03/30 03:46:17;;;;;;;15.20;8.87;;;;;;;4.15;62.76;101847.53;4954005;28;20485;-80
2021/03/30 03:48:43;;;;;;;17.70;9.73;;;;;;;4.25;62.32;101845.03;4990094;28;20516;-79
2021/03/30 03:51:10;;;;;;;19.60;9.83;;;;;;;4.41;61.53;101844.66;4991763;28;20034;-76
2021/03/30 03:53:37;;;;;;;20.57;9.13;;;;;;;4.26;61.74;101841.69;4991521;28;20447;-75
2021/03/30 03:56:05;;;;;;;17.73;9.77;;;;;;;4.21;61.92;101845.50;4991352;28;20026;-75
2021/03/30 03:58:37;;;;;;;20.73;9.10;;;;;;;4.02;61.95;101802.16;4990189;28;20385;-76
2021/03/30 04:01:05;;;;;;;19.03;8.47;;;;;;;4.45;61.53;101846.69;4991477;28;20408;-76
2021/03/30 04:03:43;;;;;;;78.57;29.57;;;;;;;4.59;61.27;101837.59;4991502;28;20031;-75
2021/03/30 04:06:14;;;;;;;29.53;13.17;;;;;;;4.66;60.50;101839.91;4994367;28;20050;-75
2021/03/30 04:08:53;;;;;;;24.10;11.47;;;;;;;4.73;60.27;101840.41;5008396;28;20046;-75
2021/03/30 04:11:19;;;;;;;23.83;9.83;;;;;;;4.23;61.01;101818.41;5008740;28;20531;-79
2021/03/30 04:13:46;;;;;;;23.50;9.13;;;;;;;4.31;61.56;101840.41;4992135;28;20026;-76
2021/03/30 04:16:12;;;;;;;40.50;15.13;;;;;;;4.28;61.52;101812.03;4992286;28;20034;-76
2021/03/30 04:18:42;;;;;;;18.97;7.23;;;;;;;4.41;61.22;101829.31;5008966;28;20041;-75
2021/03/30 04:21:24;;;;;;;11.70;6.30;;;;;;;3.98;61.65;101853.78;4996076;28;20563;-75
2021/03/30 04:23:51;;;;;;;14.27;5.70;;;;;;;3.97;62.04;101841.75;5012668;28;20030;-75
2021/03/30 04:26:17;;;;;;;13.20;5.83;;;;;;;4.05;62.33;101859.53;5012014;28;20034;-75
2021/03/30 04:28:42;;;;;;;10.73;5.93;;;;;;;3.71;62.65;101797.00;5012383;28;20412;-76
2021/03/30 04:31:08;;;;;;;16.00;6.23;;;;;;;3.40;62.81;101769.72;5012060;28;20030;-76
2021/03/30 04:33:33;;;;;;;12.00;6.20;;;;;;;3.38;64.94;101852.03;5011949;28;20029;-76
2021/03/30 04:35:59;;;;;;;12.77;5.40;;;;;;;3.48;64.99;101861.41;5011802;28;20034;-76
2021/03/30 04:38:25;;;;;;;32.23;7.00;;;;;;;3.49;65.34;101868.28;4995069;28;20080;-76
2021/03/30 04:40:53;;;;;;;28.07;15.90;;;;;;;3.62;65.24;101860.06;4993669;28;20554;-76
2021/03/30 04:43:23;;;;;;;21.87;12.30;;;;;;;3.78;64.73;101875.06;4995078;28;20480;-75
2021/03/30 04:45:49;;;;;;;25.67;10.60;;;;;;;3.66;65.30;101868.09;4995208;28;20082;-76
2021/03/30 04:48:14;;;;;;;34.63;7.20;;;;;;;3.80;65.16;101861.66;4994702;28;20066;-74
2021/03/30 04:50:40;;;;;;;34.07;8.90;;;;;;;3.89;64.97;101875.22;4994668;28;20050;-76
2021/03/30 04:53:05;;;;;;;22.03;5.70;;;;;;;3.81;64.92;101857.44;4994914;28;20027;-75
2021/03/30 04:55:31;;;;;;;21.03;5.77;;;;;;;3.65;65.86;101853.56;4988606;28;20391;-77
2021/03/30 04:57:56;;;;;;;22.17;5.63;;;;;;;3.88;65.84;101857.19;4976582;28;20066;-75
2021/03/30 05:00:42;;;;;;;20.43;7.30;;;;;;;3.72;66.46;101867.75;4993893;28;20065;-76
2021/03/30 05:03:07;;;;;;;20.27;8.40;;;;;;;3.55;67.30;101863.69;4953893;29;20039;-76
2021/03/30 05:05:33;;;;;;;18.93;6.53;;;;;;;3.54;67.78;101869.59;4937733;29;20046;-76
2021/03/30 05:07:58;;;;;;;29.67;8.03;;;;;;;3.43;67.92;101865.19;4953924;29;20090;-76
2021/03/30 05:10:25;;;;;;;17.80;6.67;;;;;;;3.53;68.23;101881.44;4953591;29;20035;-75
2021/03/30 05:12:51;;;;;;;22.17;8.03;;;;;;;3.46;68.64;101875.69;4951998;29;20027;-76
2021/03/30 05:15:17;;;;;;;19.20;6.80;;;;;;;3.54;68.55;101870.47;4936359;29;20039;-77
2021/03/30 05:17:42;;;;;;;19.00;6.87;;;;;;;3.65;67.94;101865.41;4937174;29;20042;-77
2021/03/30 05:20:08;;;;;;;14.70;6.30;;;;;;;3.17;68.13;101810.19;4953278;29;20159;-75
2021/03/30 05:22:34;;;;;;;16.73;6.50;;;;;;;3.54;68.93;101877.25;4937551;29;20521;-77
2021/03/30 05:25:02;;;;;;;24.33;7.40;;;;;;;3.65;68.74;101873.06;4952595;29;20114;-78
2021/03/30 05:27:28;;;;;;;28.43;9.53;;;;;;;3.83;69.04;101872.13;4953582;29;20043;-76
2021/03/30 05:29:54;;;;;;;18.23;7.43;;;;;;;4.01;68.79;101877.94;4936093;29;20414;-77
2021/03/30 05:32:19;;;;;;;19.67;7.93;;;;;;;4.19;68.25;101867.50;4953088;29;20038;-77
2021/03/30 05:34:49;;;;;;;18.03;7.90;;;;;;;4.31;68.00;101871.09;4953112;29;20039;-77
2021/03/30 05:37:14;;;;;;;;;;;;;;;4.17;68.29;101866.47;4937538;29;20038;-77
2021/03/30 05:39:40;;;;;;;23.10;11.23;;;;;;;4.36;67.97;101869.81;4955907;28;19914;-77
2021/03/30 05:42:07;;;;;;;25.20;11.80;;;;;;;4.33;67.58;101861.88;4974774;28;20390;-77
2021/03/30 05:44:33;;;;;;;40.07;16.90;;;;;;;4.37;67.18;101850.25;4972984;28;20030;-75
2021/03/30 05:47:16;;;;;;;18.97;8.30;;;;;;;4.44;67.58;101877.25;4974117;28;20061;-76
2021/03/30 05:49:43;;;;;;;15.27;8.33;;;;;;;4.47;66.53;101857.91;4971060;28;20054;-78
2021/03/30 05:52:19;;;;;;;21.53;9.77;;;;;;;4.41;66.99;101805.38;4972872;28;20089;-77
2021/03/30 05:54:50;;;;;;;22.60;9.80;;;;;;;4.65;65.90;101816.78;4971632;28;20445;-77
2021/03/30 05:57:17;;;;;;;27.37;11.53;;;;;;;4.89;67.27;101851.13;4973800;28;20030;-77
2021/03/30 05:59:45;;;;;;;23.47;11.60;;;;;;;5.08;65.72;101856.09;4973247;28;20401;-76
2021/03/30 06:02:51;;;;;;;22.57;10.37;;;;;;;4.97;66.34;101862.00;4972767;28;20398;-77
2021/03/30 06:05:17;;;;;;;24.23;11.23;;;;;;;5.00;64.66;101847.78;4972922;28;20046;-78
2021/03/30 06:07:43;;;;;;;20.20;11.83;;;;;;;4.50;64.02;101749.91;4989444;28;20050;-76
2021/03/30 06:10:18;;;;;;;22.37;12.17;;;;;;;5.36;63.98;101853.22;4991919;28;20026;-76
2021/03/30 06:12:43;;;;;;;15.23;7.80;;;;;;;5.12;63.82;101806.03;4993137;28;20064;-76
2021/03/30 06:15:10;;;;;;;19.43;7.30;;;;;;;5.65;64.47;101863.22;4992065;28;20121;-76
2021/03/30 06:17:50;;;;;;;16.87;8.30;;;;;;;5.80;63.81;101867.78;4991773;28;20528;-77
2021/03/30 06:20:36;;;;;;;12.75;6.55;;;;;;;6.07;62.28;101866.50;4992813;28;20401;-76
2021/03/30 06:23:06;;;;;;;11.15;6.15;;;;;;;6.29;62.24;101848.53;4990872;28;20081;-76
2021/03/30 06:25:49;;;;;;;18.08;8.38;;;;;;;6.65;65.43;101846.06;4993088;28;20022;-77
2021/03/30 06:28:31;;;;;;;14.25;8.50;;;;;;;6.57;64.80;101796.75;4993447;28;20391;-77
2021/03/30 06:31:04;;;;;;;16.77;9.82;;;;;;;7.14;63.08;101859.09;4992221;28;20049;-77
2021/03/30 06:33:32;;;;;;;15.20;7.40;;;;;;;7.34;61.48;101857.06;4993465;28;20110;-78
2021/03/30 06:36:16;;;;;;;17.90;7.75;;;;;;;7.51;60.67;101856.59;4991939;28;20038;-78
2021/03/30 06:38:56;;;;;;;19.13;7.93;;;;;;;7.71;59.74;101855.47;4990628;28;20089;-77
2021/03/30 06:44:25;;;;;;;20.75;8.18;;;;;;;7.99;59.17;101862.53;4932539;29;20050;-76
2021/03/30 06:46:58;;;;;;;72.68;27.65;;;;;;;8.22;58.69;101863.25;4930234;29;20044;-77
2021/03/30 06:49:25;;;;;;;25.73;9.68;;;;;;;8.25;58.26;101832.59;4932574;29;20287;-77
2021/03/30 06:51:51;;;;;;;15.65;7.03;;;;;;;8.51;57.52;101848.94;4932170;29;20156;-79
2021/03/30 06:54:16;;;;;;;13.45;7.00;;;;;;;8.71;57.49;101830.56;4931923;29;20506;-77
2021/03/30 06:56:49;;;;;;;36.88;13.05;;;;;;;8.92;56.65;101847.34;4932351;29;20040;-77
2021/03/30 06:59:14;;;;;;;73.25;31.38;;;;;;;8.99;55.21;101849.53;4929778;29;20792;-78
2021/03/30 07:01:41;;;;;;;43.95;19.75;;;;;;;9.14;54.43;101847.06;4929402;29;20157;-77
2021/03/30 07:04:07;;;;;;;31.20;13.63;;;;;;;9.33;52.03;101847.47;4931458;29;20035;-77
2021/03/30 07:06:35;;;;;;;13.68;6.57;;;;;;;9.36;51.65;101849.34;4931197;29;20047;-77
2021/03/30 07:09:01;;;;;;;41.75;17.75;;;;;;;9.33;50.68;101833.66;4931463;29;20055;-76
2021/03/30 07:11:27;;;;;;;13.52;10.68;;;;;;;9.28;50.46;101828.22;4929926;29;20082;-77
2021/03/30 07:13:53;;;;;;;13.05;9.35;;;;;;;9.52;51.61;101853.75;4931049;29;20564;-78
2021/03/30 07:16:25;;;;;;;8.50;5.07;;;;;;;9.60;51.93;101841.38;4931143;29;20139;-77
2021/03/30 07:18:54;;;;;;;10.00;5.43;;;;;;;9.46;50.59;101797.56;4930890;29;20608;-77
2021/03/30 07:21:27;;;;;;;9.25;5.78;;;;;;;9.66;49.91;101832.34;4965768;28;20042;-77
2021/03/30 07:23:58;;;;;;;8.90;5.60;;;;;;;9.57;50.65;101839.50;4988819;28;20037;-77
2021/03/30 07:26:35;;;;;;;8.80;5.47;;;;;;;9.51;50.20;101801.31;4988338;28;20034;-77
2021/03/30 07:29:08;;;;;;;9.50;6.13;;;;;;;9.74;51.02;101835.38;4991973;28;20041;-77
2021/03/30 07:31:52;;;;;;;9.82;6.43;;;;;;;9.91;50.96;101845.88;4986201;28;20477;-77
2021/03/30 07:34:32;;;;;;;10.20;6.25;;;;;;;9.90;51.56;101832.06;4989343;28;20033;-78
2021/03/30 07:36:59;;;;;;;;;;;;;;;10.19;51.32;101839.03;4987066;28;20041;-79
2021/03/30 07:39:29;;;;;;;56.72;21.77;;;;;;;10.36;49.82;101797.88;4990665;28;20008;-77
2021/03/30 07:41:55;;;;;;;26.65;12.95;;;;;;;10.67;48.64;101812.59;4991675;28;20116;-79
2021/03/30 07:44:22;;;;;;;51.28;21.17;;;;;;;10.84;49.44;101819.63;4991021;28;20046;-79
2021/03/30 07:46:49;;;;;;;37.97;13.95;;;;;;;10.92;48.62;101804.53;4988185;28;20411;-78
2021/03/30 07:49:15;;;;;;;26.58;13.05;;;;;;;11.14;47.52;101817.00;4989392;28;20038;-78
2021/03/30 07:51:45;;;;;;;30.20;12.00;;;;;;;11.12;48.22;101813.41;4999565;28;20558;-79
2021/03/30 07:54:11;;;;;;;;;;;;;;;11.28;49.16;101819.47;4951106;28;20039;-76
2021/03/30 07:56:43;;;;;;;36.92;14.40;;;;;;;10.93;46.94;101752.06;4950298;29;20033;-77
2021/03/30 07:59:09;;;;;;;27.10;12.93;;;;;;;11.08;47.05;101805.41;4949475;29;20046;-78
2021/03/30 08:01:36;;;;;;;19.70;12.52;;;;;;;11.21;48.20;101807.00;4950592;29;20027;-79
2021/03/30 08:04:03;;;;;;;15.77;10.20;;;;;;;11.09;48.91;101769.31;4931647;29;20031;-79
2021/03/30 08:06:36;;;;;;;22.60;13.55;;;;;;;11.19;47.25;101790.50;4933997;29;20051;-78
2021/03/30 08:09:11;;;;;;;21.17;12.30;;;;;;;11.40;47.12;101827.00;4931876;29;20110;-78
2021/03/30 08:11:45;;;;;;;17.15;9.77;;;;;;;11.34;47.59;101832.75;4950122;29;20114;-79
2021/03/30 08:14:16;;;;;;;12.43;9.60;;;;;;;11.41;49.28;101833.97;4949150;29;20070;-79
2021/03/30 08:16:44;;;;;;;18.13;13.50;;;;;;;11.51;48.52;101828.47;4945889;29;20119;-79
2021/03/30 08:19:14;;;;;;;17.95;11.60;;;;;;;11.59;48.30;101813.38;4950468;29;20043;-78
2021/03/30 08:21:51;;;;;;;;;;;;;;;11.85;47.79;101827.75;4934559;29;20106;-76
2021/03/30 08:24:17;;;;;;;14.45;10.07;;;;;;;11.96;47.40;101825.72;4955601;28;19973;-79
2021/03/30 08:26:44;;;;;;;14.15;9.20;;;;;;;11.90;47.25;101817.63;4991445;28;20034;-78
2021/03/30 08:29:33;;;;;;;12.80;9.73;;;;;;;11.88;47.03;101821.84;4989658;28;20033;-79
2021/03/30 08:32:00;;;;;;;14.65;10.70;;;;;;;11.80;47.30;101814.53;4968215;28;20034;-79
2021/03/30 08:34:36;;;;;;;17.50;10.10;;;;;;;11.57;47.21;101766.75;4947492;28;20066;-78
2021/03/30 08:37:09;;;;;;;17.23;10.60;;;;;;;11.97;48.22;101805.13;4946527;28;20067;-79
2021/03/30 08:39:35;;;;;;;42.03;18.20;;;;;;;12.16;46.15;101781.91;4949785;28;20111;-79
2021/03/30 08:42:04;;;;;;;24.73;13.35;;;;;;;12.37;45.28;101813.19;4930745;29;20043;-79
2021/03/30 08:44:58;;;;;;;23.23;13.55;;;;;;;12.53;45.35;101809.69;4930513;29;20055;-79
2021/03/30 08:47:35;;;;;;;41.85;21.58;;;;;;;12.66;44.60;101801.72;4891121;29;20519;-79
2021/03/30 08:50:25;;;;;;;19.92;11.15;;;;;;;12.85;47.77;101805.22;4872744;29;20419;-79
2021/03/30 08:52:54;;;;;;;;;;;;;;;12.91;42.77;101790.84;4889108;29;20056;-77
2021/03/30 08:55:30;;;;;;;25.70;13.80;;;;;;;12.76;42.85;101808.22;4870260;29;19920;-79
2021/03/30 08:57:59;;;;;;;26.35;12.82;;;;;;;12.67;44.99;101803.47;4872796;29;20356;-77
2021/03/30 09:00:26;;;;;;;20.60;11.05;;;;;;;12.99;43.07;101818.84;4884573;29;20393;-77
2021/03/30 09:03:02;;;;;;;17.10;11.50;;;;;;;13.13;44.52;101809.13;4897854;29;20550;-77
2021/03/30 09:05:27;;;;;;;42.63;13.63;;;;;;;13.24;43.35;101787.19;4913592;29;20032;-81
2021/03/30 09:07:53;;;;;;;31.85;14.90;;;;;;;13.20;41.66;101793.06;4934502;29;20158;-76
2021/03/30 09:10:20;;;;;;;16.77;11.27;;;;;;;12.95;43.68;101751.28;4931452;29;20028;-77
2021/03/30 09:12:46;;;;;;;21.40;10.18;;;;;;;13.22;42.00;101807.88;4948479;28;20037;-80
2021/03/30 09:15:15;;;;;;;12.95;9.10;;;;;;;13.47;40.26;101787.41;4992008;28;20034;-77
2021/03/30 09:17:57;;;;;;;19.38;12.07;;;;;;;13.79;42.44;101800.97;4992735;28;20485;-76
2021/03/30 09:20:25;;;;;;;18.70;9.65;;;;;;;13.39;39.15;101758.53;4991973;28;20030;-77
2021/03/30 09:22:52;;;;;;;14.07;8.77;;;;;;;13.71;42.03;101782.47;4992854;28;20510;-77
2021/03/30 09:27:55;;;;;;;12.20;8.63;;;;;;;14.09;40.39;101783.25;4991872;28;20041;-77
2021/03/30 09:30:22;;;;;;;15.30;9.80;;;;;;;14.24;40.77;101783.94;4988363;28;20042;-77
2021/03/30 09:32:49;;;;;;;22.02;12.98;;;;;;;14.45;38.45;101774.41;4993548;28;20042;-77
2021/03/30 09:35:20;;;;;;;11.48;9.00;;;;;;;14.48;38.72;101771.91;5011395;28;20129;-77
2021/03/30 09:38:07;;;;;;;14.25;9.20;;;;;;;14.27;38.56;101767.59;5010983;28;20578;-77
2021/03/30 09:40:41;;;;;;;15.85;9.20;;;;;;;13.90;39.48;101753.03;4994568;28;20048;-77
2021/03/30 09:43:10;;;;;;;20.02;9.23;;;;;;;14.22;40.36;101789.91;5011644;28;20081;-78
2021/03/30 09:45:37;;;;;;;12.07;7.90;;;;;;;14.27;38.70;101779.69;4995158;28;20515;-77
2021/03/30 09:48:08;;;;;;;10.82;8.63;;;;;;;14.31;38.28;101779.88;5011289;28;20354;-77
2021/03/30 09:50:39;;;;;;;13.43;8.88;;;;;;;14.15;39.96;101782.66;4994990;28;20034;-79
2021/03/30 09:53:07;;;;;;;12.98;8.68;;;;;;;13.83;40.46;101790.81;4994995;28;20049;-79
2021/03/30 09:55:40;;;;;;;12.25;8.95;;;;;;;13.62;39.80;101780.34;5011029;28;20072;-77
2021/03/30 09:58:19;;;;;;;12.52;8.57;;;;;;;14.08;42.40;101771.09;5011282;28;20184;-78
2021/03/30 10:00:53;;;;;;;16.05;8.65;;;;;;;13.97;38.69;101768.06;4995009;28;20038;-79
2021/03/30 10:03:21;;;;;;;20.95;8.90;;;;;;;13.66;38.25;101761.50;4992478;28;20050;-78
2021/03/30 10:05:46;;;;;;;28.88;10.95;;;;;;;13.29;41.34;101754.56;4991509;28;20653;-78
2021/03/30 10:08:29;;;;;;;16.45;8.73;;;;;;;13.33;41.94;101750.44;4975410;28;20046;-78
2021/03/30 10:10:58;;;;;;;13.98;10.15;;;;;;;13.90;41.99;101774.66;4991840;28;20162;-77
2021/03/30 10:13:36;;;;;;;21.85;12.48;;;;;;;14.13;38.86;101750.53;4991860;28;20065;-78
2021/03/30 10:16:08;;;;;;;13.63;9.80;;;;;;;14.24;38.83;101757.06;4991253;28;20049;-77
2021/03/30 10:18:35;;;;;;;32.42;16.00;;;;;;;14.43;39.04;101766.56;4974761;28;20030;-77
2021/03/30 10:21:19;;;;;;;22.48;13.68;;;;;;;14.36;37.24;101749.78;4975055;28;20096;-79
2021/03/30 10:23:49;;;;;;;19.75;12.95;;;;;;;14.32;38.19;101742.69;4991733;28;20042;-78
2021/03/30 10:26:18;;;;;;;20.83;12.25;;;;;;;14.79;38.86;101762.81;4991535;28;20576;-78
2021/03/30 10:28:52;;;;;;;18.95;12.93;;;;;;;15.17;39.87;101759.13;4991404;28;20073;-79
2021/03/30 10:31:41;;;;;;;18.20;12.63;;;;;;;14.83;37.74;101703.22;4952578;29;20130;-78
2021/03/30 10:34:23;;;;;;;13.00;9.52;;;;;;;15.26;39.27;101752.53;4936117;29;20604;-78
2021/03/30 10:36:57;;;;;;;14.18;10.32;;;;;;;14.98;37.89;101744.53;4962619;28;20539;-77
2021/03/30 10:39:30;;;;;;;15.70;10.45;;;;;;;14.91;37.86;101739.03;4955481;28;20034;-79
2021/03/30 10:42:09;;;;;;;16.30;10.90;;;;;;;15.15;38.27;101736.50;4955393;28;20126;-78
2021/03/30 10:44:47;;;;;;;14.88;11.95;;;;;;;15.26;39.06;101748.19;4955485;28;20031;-79
2021/03/30 10:47:19;;;;;;;17.05;11.07;;;;;;;14.75;37.08;101735.81;4955411;28;20154;-77
2021/03/30 10:49:48;;;;;;;17.65;10.10;;;;;;;14.68;38.37;101744.22;4955599;28;20073;-77
2021/03/30 10:52:16;;;;;;;18.00;10.82;;;;;;;14.50;38.44;101745.16;4955234;28;20039;-78
2021/03/30 10:54:43;;;;;;;19.67;10.73;;;;;;;14.51;38.95;101740.88;4955142;28;20058;-77
2021/03/30 10:57:13;;;;;;;18.08;12.65;;;;;;;14.07;38.08;101694.03;4955031;28;20038;-79
2021/03/30 10:59:39;;;;;;;16.63;10.77;;;;;;;14.13;37.45;101741.03;4955237;28;20528;-79
2021/03/30 11:02:05;;;;;;;20.00;14.02;;;;;;;14.01;38.89;101736.19;4968438;28;20128;-77
2021/03/30 11:04:31;;;;;;;16.55;10.88;;;;;;;13.74;39.08;101726.41;4991638;28;20119;-78
2021/03/30 11:06:59;;;;;;;15.63;10.57;;;;;;;13.69;39.43;101738.25;4991591;28;20061;-79
2021/03/30 11:09:26;;;;;;;15.65;12.02;;;;;;;13.82;39.05;101725.81;4991676;28;20026;-79
2021/03/30 11:11:53;;;;;;;15.65;10.82;;;;;;;13.74;39.64;101728.09;4991746;28;20414;-79
2021/03/30 11:14:19;;;;;;;14.48;11.05;;;;;;;13.80;41.27;101722.28;4990404;28;20036;-85
2021/03/30 11:16:44;;;;;;;15.85;11.65;;;;;;;13.72;40.93;101720.25;4993072;28;20081;-80
2021/03/30 11:19:30;;;;;;;16.85;11.45;;;;;;;13.69;41.28;101724.41;4979695;28;20511;-80
2021/03/30 11:21:58;;;;;;;16.58;11.77;;;;;;;13.65;41.64;101709.53;4989719;28;20045;-81
2021/03/30 11:24:27;;;;;;;14.98;10.25;;;;;;;13.79;40.38;101723.09;4989686;28;20042;-79
2021/03/30 11:26:55;;;;;;;16.35;11.52;;;;;;;13.74;41.54;101720.31;4971309;28;20080;-80
2021/03/30 11:40:14;;;;;;;15.77;10.20;;;;;;;13.36;41.89;101689.22;4931776;29;20034;-79
2021/03/30 11:42:40;;;;;;;15.45;9.70;;;;;;;13.46;42.17;101702.63;4931562;29;20506;-81
2021/03/30 11:45:06;;;;;;;18.48;11.73;;;;;;;13.24;41.31;101691.25;4931624;29;20486;-79
2021/03/30 11:47:31;;;;;;;17.40;11.43;;;;;;;13.24;41.93;101706.81;4912960;29;20048;-80
2021/03/30 11:49:57;;;;;;;17.85;10.68;;;;;;;13.12;43.05;101699.34;4926338;29;20035;-80